Davis Sea — WDC2883 — position and weather

sailwx.info

Track history (hours):
 
Tides and Currents Weather Stations Pressure Air Temp Water Temp Dewpoint Dewpoint Depression Visibility Wind Speed Wind Dir Waves Ship Positions

Davis Sea

Owner: Kirby Offshore Marine, LLC, Staten Island, NY. More information available from US FCC via Universal Licensing System and Coast Guard Vessel Documentation Center.

Last reported at 2014-Oct-31 15:33 UTC. Time now 2014-Nov-28 09:45 UTC.
Position N 29°47' W 095°04'.
Warning: this ship's position is 27 days out of date.

; draft 2.6 m.

MMSI: 367129540.

Date/timePositionNaut miles runAvg speedWind from/ knotsBaromVisibWave heightAir tempDewpointWater temp
2014-Oct-31 15:33N 29°47' W 095°04'0 0.0
2014-Oct-31 14:31N 29°47' W 095°04'0 0.0
2014-Oct-31 13:28N 29°47' W 095°04'0 0.2
2014-Oct-31 12:33N 29°47' W 095°04'0 0.1
2014-Oct-31 11:33N 29°47' W 095°04'0 0.0
2014-Oct-31 10:33N 29°47' W 095°04'0 0.0
2014-Oct-31 09:33N 29°47' W 095°04'0 0.0
2014-Oct-31 08:33N 29°47' W 095°04'0 0.0
2014-Oct-31 07:33N 29°47' W 095°04'0 0.0
2014-Oct-31 06:33N 29°47' W 095°04'4 3.6
2014-Oct-31 05:33N 29°44' W 095°02'9 8.9
2014-Oct-31 04:33N 29°36' W 094°57'  
2014-Oct-26 17:29N 25°44' W 080°04'4 1.9
2014-Oct-26 15:06N 25°46' W 080°09'  
2014-Oct-23 11:21N 25°46' W 080°09'0 0.0
2014-Oct-23 10:22N 25°46' W 080°09'6 6.9
2014-Oct-23 09:33N 25°50' W 080°05'1010.2
2014-Oct-23 08:33N 26°00' W 080°04'9 9.3
2014-Oct-23 07:33N 26°09' W 080°02'9 8.9
2014-Oct-23 06:33N 26°18' W 080°00'9 9.0
2014-Oct-23 05:33N 26°27' W 080°01'9 9.3
2014-Oct-23 04:33N 26°37' W 080°00'12 9.0
2014-Oct-23 03:11N 26°49' W 080°00'5 7.6
2014-Oct-23 02:34N 26°54' W 080°01'9 8.3
2014-Oct-23 01:32N 27°02' W 080°02'  
Track history (hours):
 
Tides and Currents Weather Stations Pressure Air Temp Water Temp Dewpoint Dewpoint Depression Visibility Wind Speed Wind Dir Waves Ship Positions

Davis Sea

Owner: Kirby Offshore Marine, LLC, Staten Island, NY. More information available from US FCC via Universal Licensing System and Coast Guard Vessel Documentation Center.

Last reported at 2014-Oct-31 15:33 UTC. Time now 2014-Nov-28 09:45 UTC.
Position N 29°47' W 095°04'.
Warning: this ship's position is 27 days out of date.

; draft 2.6 m.

MMSI: 367129540.

Date/timePositionNaut miles runAvg speedWind from/ knotsBaromVisibWave heightAir tempDewpointWater temp
2014-Oct-31 15:33N 29°47' W 095°04'0 0.0
2014-Oct-31 14:31N 29°47' W 095°04'0 0.0
2014-Oct-31 13:28N 29°47' W 095°04'0 0.2
2014-Oct-31 12:33N 29°47' W 095°04'0 0.1
2014-Oct-31 11:33N 29°47' W 095°04'0 0.0
2014-Oct-31 10:33N 29°47' W 095°04'0 0.0
2014-Oct-31 09:33N 29°47' W 095°04'0 0.0
2014-Oct-31 08:33N 29°47' W 095°04'0 0.0
2014-Oct-31 07:33N 29°47' W 095°04'0 0.0
2014-Oct-31 06:33N 29°47' W 095°04'4 3.6
2014-Oct-31 05:33N 29°44' W 095°02'9 8.9
2014-Oct-31 04:33N 29°36' W 094°57'  
2014-Oct-26 17:29N 25°44' W 080°04'4 1.9
2014-Oct-26 15:06N 25°46' W 080°09'  
2014-Oct-23 11:21N 25°46' W 080°09'0 0.0
2014-Oct-23 10:22N 25°46' W 080°09'6 6.9
2014-Oct-23 09:33N 25°50' W 080°05'1010.2
2014-Oct-23 08:33N 26°00' W 080°04'9 9.3
2014-Oct-23 07:33N 26°09' W 080°02'9 8.9
2014-Oct-23 06:33N 26°18' W 080°00'9 9.0
2014-Oct-23 05:33N 26°27' W 080°01'9 9.3
2014-Oct-23 04:33N 26°37' W 080°00'12 9.0
2014-Oct-23 03:11N 26°49' W 080°00'5 7.6
2014-Oct-23 02:34N 26°54' W 080°01'9 8.3
2014-Oct-23 01:32N 27°02' W 080°02'  

Dump ship's entire track history